Hauptseite
METAR-TAF:

METAR-TAF

Flughäfen :

Militärflugplatz Volkel

Uden, Niederlande

Breite: 51-39N, Länge: 005-42E, Höhe: 22 m

Beobachtung

Neuester Wetterbericht von vor 29 Minuten, um 18:55 UTC
Wind 3 kt aus Nordwest
Temperatur 6°C
Luftfeuchtigkeit 56%
Luftdruck 1020 hPa
Sichtweite 10 km oder mehr

METAR: EHVK 031855Z AUTO 31003KT 9999 NCD 06/M02 Q1020 BLU

Zeit: 21:24 (19:24 UTC)

Prognose

Neuester Wetterbericht von vor 2 Stunden und 48 Minuten, um 16:36 UTC
Gültige Prognose vom 03 um 17 UTC bis 04 um 05 UTC
Wind 7 kt aus West
Sichtweite 10 km oder mehr
Aufgelockert bewölkt in der Höhe von 3500 ft
Übergehend zu
vom 03 um 21 UTC bis 03 um 23 UTC
Wind 2 kt aus unterschiedlichen Richtungen
Übergehend zu
vom 04 um 03 UTC bis 04 um 05 UTC
Wind 5 kt aus Süd

TAF: EHVK 031636Z 0317/0405 28007KT 9999 SCT035 BECMG 0321/0323 VRB02KT BECMG 0403/0405 17005KT

Wetterbeobachtungen und Prognosen von mehr als 4000 Flughäfen (METAR und TAF Bericht).

Die verfügbaren Stationen werden durch gelbe und rote Markierungen auf der Karte dargestellt.

Führen Sie die Maus auf sie, um den Namen der Station zu sehen.

Darauf klicken, um die Beobachtung von Wetterbeobachtungen und Prognosen zu sehen.

Um die Karte zu ändern : klicken Sie auf den grünen Tasten mit einem schwarzen Kreuz Zum Vergrößern, auf den grünen Button mit einem Gedankenstrich zu verkleinern, oder auf die grünen Pfeile für benachbarte Karten.


METAR-TAF: